sensor_id;sensor_type;location;lat;lon;timestamp;temperature;humidity
19248;DHT22;9758;48.640;8.148;2022-07-23T00:00:10;27.90;37.90
19248;DHT22;9758;48.640;8.148;2022-07-23T00:02:37;27.80;37.90
19248;DHT22;9758;48.640;8.148;2022-07-23T00:05:04;27.80;37.90
19248;DHT22;9758;48.640;8.148;2022-07-23T00:07:31;27.80;37.90
19248;DHT22;9758;48.640;8.148;2022-07-23T00:09:58;27.80;38.00
19248;DHT22;9758;48.640;8.148;2022-07-23T00:12:24;27.70;37.90
19248;DHT22;9758;48.640;8.148;2022-07-23T00:14:51;27.70;37.90
19248;DHT22;9758;48.640;8.148;2022-07-23T00:17:19;27.70;37.80
19248;DHT22;9758;48.640;8.148;2022-07-23T00:19:46;27.70;37.90
19248;DHT22;9758;48.640;8.148;2022-07-23T00:22:13;27.70;37.90
19248;DHT22;9758;48.640;8.148;2022-07-23T00:24:40;27.70;37.90
19248;DHT22;9758;48.640;8.148;2022-07-23T00:27:06;27.60;37.80
19248;DHT22;9758;48.640;8.148;2022-07-23T00:29:33;27.60;37.80
19248;DHT22;9758;48.640;8.148;2022-07-23T00:32:00;27.60;37.90
19248;DHT22;9758;48.640;8.148;2022-07-23T00:34:28;27.60;38.00
19248;DHT22;9758;48.640;8.148;2022-07-23T00:36:55;27.60;38.00
19248;DHT22;9758;48.640;8.148;2022-07-23T00:39:22;27.50;38.00
19248;DHT22;9758;48.640;8.148;2022-07-23T00:41:49;27.50;37.90
19248;DHT22;9758;48.640;8.148;2022-07-23T00:44:18;27.50;38.00
19248;DHT22;9758;48.640;8.148;2022-07-23T00:46:46;27.50;38.00
19248;DHT22;9758;48.640;8.148;2022-07-23T00:49:13;27.40;38.00
19248;DHT22;9758;48.640;8.148;2022-07-23T00:51:42;27.40;38.10
19248;DHT22;9758;48.640;8.148;2022-07-23T00:54:09;27.30;38.10
19248;DHT22;9758;48.640;8.148;2022-07-23T00:56:37;27.30;38.20
19248;DHT22;9758;48.640;8.148;2022-07-23T00:59:06;27.30;38.20
19248;DHT22;9758;48.640;8.148;2022-07-23T01:01:33;27.30;38.30
19248;DHT22;9758;48.640;8.148;2022-07-23T01:04:04;27.20;38.30
19248;DHT22;9758;48.640;8.148;2022-07-23T01:06:35;27.20;38.40
19248;DHT22;9758;48.640;8.148;2022-07-23T01:09:04;27.10;38.40
19248;DHT22;9758;48.640;8.148;2022-07-23T01:11:33;27.10;38.40
19248;DHT22;9758;48.640;8.148;2022-07-23T01:14:07;27.00;38.50
19248;DHT22;9758;48.640;8.148;2022-07-23T01:16:34;27.00;38.60
19248;DHT22;9758;48.640;8.148;2022-07-23T01:19:01;26.90;38.60
19248;DHT22;9758;48.640;8.148;2022-07-23T01:21:30;26.80;38.60
19248;DHT22;9758;48.640;8.148;2022-07-23T01:23:58;26.80;38.70
19248;DHT22;9758;48.640;8.148;2022-07-23T01:26:25;26.70;38.80
19248;DHT22;9758;48.640;8.148;2022-07-23T01:28:52;26.60;38.80
19248;DHT22;9758;48.640;8.148;2022-07-23T01:31:18;26.50;38.90
19248;DHT22;9758;48.640;8.148;2022-07-23T01:33:45;26.50;39.00
19248;DHT22;9758;48.640;8.148;2022-07-23T01:36:12;26.40;39.00
19248;DHT22;9758;48.640;8.148;2022-07-23T01:38:39;26.30;39.00
19248;DHT22;9758;48.640;8.148;2022-07-23T01:41:07;26.20;39.10
19248;DHT22;9758;48.640;8.148;2022-07-23T01:43:33;26.10;39.20
19248;DHT22;9758;48.640;8.148;2022-07-23T01:46:00;26.00;39.30
19248;DHT22;9758;48.640;8.148;2022-07-23T01:48:27;26.00;39.40
19248;DHT22;9758;48.640;8.148;2022-07-23T01:50:54;25.90;39.40
19248;DHT22;9758;48.640;8.148;2022-07-23T01:53:21;25.90;39.50
19248;DHT22;9758;48.640;8.148;2022-07-23T01:55:48;25.80;39.50
19248;DHT22;9758;48.640;8.148;2022-07-23T01:58:16;25.80;39.60
19248;DHT22;9758;48.640;8.148;2022-07-23T02:00:43;25.70;39.60
19248;DHT22;9758;48.640;8.148;2022-07-23T02:03:09;25.60;39.60
19248;DHT22;9758;48.640;8.148;2022-07-23T02:05:36;25.60;39.60
19248;DHT22;9758;48.640;8.148;2022-07-23T02:08:03;25.60;39.70
19248;DHT22;9758;48.640;8.148;2022-07-23T02:10:30;25.60;39.70
19248;DHT22;9758;48.640;8.148;2022-07-23T02:12:57;25.50;39.80
19248;DHT22;9758;48.640;8.148;2022-07-23T02:15:25;25.40;39.70
19248;DHT22;9758;48.640;8.148;2022-07-23T02:17:52;25.50;39.80
19248;DHT22;9758;48.640;8.148;2022-07-23T02:20:18;25.40;39.90
19248;DHT22;9758;48.640;8.148;2022-07-23T02:22:45;25.40;39.90
19248;DHT22;9758;48.640;8.148;2022-07-23T02:25:12;25.40;39.90
19248;DHT22;9758;48.640;8.148;2022-07-23T02:27:38;25.40;40.00
19248;DHT22;9758;48.640;8.148;2022-07-23T02:30:06;25.30;39.90
19248;DHT22;9758;48.640;8.148;2022-07-23T02:32:34;25.30;40.00
19248;DHT22;9758;48.640;8.148;2022-07-23T02:35:01;25.30;40.00
19248;DHT22;9758;48.640;8.148;2022-07-23T02:37:47;25.30;40.00
19248;DHT22;9758;48.640;8.148;2022-07-23T02:40:14;25.30;40.20
19248;DHT22;9758;48.640;8.148;2022-07-23T02:42:40;25.30;40.10
19248;DHT22;9758;48.640;8.148;2022-07-23T02:45:08;25.30;40.10
19248;DHT22;9758;48.640;8.148;2022-07-23T02:47:36;25.20;40.10
19248;DHT22;9758;48.640;8.148;2022-07-23T02:50:04;25.20;40.20
19248;DHT22;9758;48.640;8.148;2022-07-23T02:52:31;25.20;40.20
19248;DHT22;9758;48.640;8.148;2022-07-23T02:54:57;25.20;40.30
19248;DHT22;9758;48.640;8.148;2022-07-23T02:57:24;25.20;40.30
19248;DHT22;9758;48.640;8.148;2022-07-23T02:59:51;25.20;40.30
19248;DHT22;9758;48.640;8.148;2022-07-23T03:02:17;25.20;40.40
19248;DHT22;9758;48.640;8.148;2022-07-23T03:04:45;25.20;40.40
19248;DHT22;9758;48.640;8.148;2022-07-23T03:07:12;25.20;40.30
19248;DHT22;9758;48.640;8.148;2022-07-23T03:09:39;25.20;40.30
19248;DHT22;9758;48.640;8.148;2022-07-23T03:12:06;25.20;40.40
19248;DHT22;9758;48.640;8.148;2022-07-23T03:14:33;25.20;40.40
19248;DHT22;9758;48.640;8.148;2022-07-23T03:17:00;25.10;40.30
19248;DHT22;9758;48.640;8.148;2022-07-23T03:19:27;25.10;40.30
19248;DHT22;9758;48.640;8.148;2022-07-23T03:21:55;25.10;40.30
19248;DHT22;9758;48.640;8.148;2022-07-23T03:24:21;25.10;40.30
19248;DHT22;9758;48.640;8.148;2022-07-23T03:26:49;25.10;40.40
19248;DHT22;9758;48.640;8.148;2022-07-23T03:29:15;25.00;40.30
19248;DHT22;9758;48.640;8.148;2022-07-23T03:31:42;25.00;40.40
19248;DHT22;9758;48.640;8.148;2022-07-23T03:34:09;25.00;40.40
19248;DHT22;9758;48.640;8.148;2022-07-23T03:36:36;25.00;40.40
19248;DHT22;9758;48.640;8.148;2022-07-23T03:39:04;25.00;40.40
19248;DHT22;9758;48.640;8.148;2022-07-23T03:41:31;25.00;40.40
19248;DHT22;9758;48.640;8.148;2022-07-23T03:43:57;25.00;40.40
19248;DHT22;9758;48.640;8.148;2022-07-23T03:46:24;25.00;40.40
19248;DHT22;9758;48.640;8.148;2022-07-23T03:48:51;24.90;40.40
19248;DHT22;9758;48.640;8.148;2022-07-23T03:51:17;24.90;40.40
19248;DHT22;9758;48.640;8.148;2022-07-23T03:53:44;24.90;40.40
19248;DHT22;9758;48.640;8.148;2022-07-23T03:56:12;24.90;40.70
19248;DHT22;9758;48.640;8.148;2022-07-23T03:58:39;24.90;40.50
19248;DHT22;9758;48.640;8.148;2022-07-23T04:01:06;24.90;40.50
19248;DHT22;9758;48.640;8.148;2022-07-23T04:03:32;24.90;40.50
19248;DHT22;9758;48.640;8.148;2022-07-23T04:05:59;24.90;40.50
19248;DHT22;9758;48.640;8.148;2022-07-23T04:08:26;24.80;40.50
19248;DHT22;9758;48.640;8.148;2022-07-23T04:10:53;24.80;40.50
19248;DHT22;9758;48.640;8.148;2022-07-23T04:13:21;24.80;40.50
19248;DHT22;9758;48.640;8.148;2022-07-23T04:15:48;24.80;40.50
19248;DHT22;9758;48.640;8.148;2022-07-23T04:18:16;24.80;40.50
19248;DHT22;9758;48.640;8.148;2022-07-23T04:20:42;24.80;40.50
19248;DHT22;9758;48.640;8.148;2022-07-23T04:23:09;24.80;40.50
19248;DHT22;9758;48.640;8.148;2022-07-23T04:25:36;24.70;40.50
19248;DHT22;9758;48.640;8.148;2022-07-23T04:28:03;24.80;40.60
19248;DHT22;9758;48.640;8.148;2022-07-23T04:30:31;24.80;40.60
19248;DHT22;9758;48.640;8.148;2022-07-23T04:32:58;24.80;40.60
19248;DHT22;9758;48.640;8.148;2022-07-23T04:35:25;24.80;40.60
19248;DHT22;9758;48.640;8.148;2022-07-23T04:37:52;24.80;40.50
19248;DHT22;9758;48.640;8.148;2022-07-23T04:40:18;24.80;40.50
19248;DHT22;9758;48.640;8.148;2022-07-23T04:42:45;24.80;40.50
19248;DHT22;9758;48.640;8.148;2022-07-23T04:45:12;24.90;40.60
19248;DHT22;9758;48.640;8.148;2022-07-23T04:47:40;24.90;40.60
19248;DHT22;9758;48.640;8.148;2022-07-23T04:50:07;24.90;40.60
19248;DHT22;9758;48.640;8.148;2022-07-23T04:52:34;24.90;40.60
19248;DHT22;9758;48.640;8.148;2022-07-23T04:55:01;24.90;40.60
19248;DHT22;9758;48.640;8.148;2022-07-23T04:57:28;24.90;40.60
19248;DHT22;9758;48.640;8.148;2022-07-23T04:59:54;25.00;40.70
19248;DHT22;9758;48.640;8.148;2022-07-23T05:02:21;25.00;40.70
19248;DHT22;9758;48.640;8.148;2022-07-23T05:04:49;25.00;40.70
19248;DHT22;9758;48.640;8.148;2022-07-23T05:07:16;25.00;40.70
19248;DHT22;9758;48.640;8.148;2022-07-23T05:09:42;25.10;40.70
19248;DHT22;9758;48.640;8.148;2022-07-23T05:12:09;25.10;40.70
19248;DHT22;9758;48.640;8.148;2022-07-23T05:14:36;25.10;40.70
19248;DHT22;9758;48.640;8.148;2022-07-23T05:17:03;25.20;40.80
19248;DHT22;9758;48.640;8.148;2022-07-23T05:19:29;25.20;40.90
19248;DHT22;9758;48.640;8.148;2022-07-23T05:21:57;25.20;40.90
19248;DHT22;9758;48.640;8.148;2022-07-23T05:24:24;25.20;40.80
19248;DHT22;9758;48.640;8.148;2022-07-23T05:26:51;25.20;40.80
19248;DHT22;9758;48.640;8.148;2022-07-23T05:29:18;25.20;40.90
19248;DHT22;9758;48.640;8.148;2022-07-23T05:31:45;25.30;40.90
19248;DHT22;9758;48.640;8.148;2022-07-23T05:34:12;25.30;40.90
19248;DHT22;9758;48.640;8.148;2022-07-23T05:36:39;25.40;41.00
19248;DHT22;9758;48.640;8.148;2022-07-23T05:39:07;25.40;41.00
19248;DHT22;9758;48.640;8.148;2022-07-23T05:41:34;25.50;40.90
19248;DHT22;9758;48.640;8.148;2022-07-23T05:44:00;25.50;40.90
19248;DHT22;9758;48.640;8.148;2022-07-23T05:46:27;25.60;40.90
19248;DHT22;9758;48.640;8.148;2022-07-23T05:48:54;25.60;40.80
19248;DHT22;9758;48.640;8.148;2022-07-23T05:51:21;25.50;40.90
19248;DHT22;9758;48.640;8.148;2022-07-23T05:53:48;25.40;40.90
19248;DHT22;9758;48.640;8.148;2022-07-23T05:56:16;25.20;41.00
19248;DHT22;9758;48.640;8.148;2022-07-23T05:58:43;25.10;41.10
19248;DHT22;9758;48.640;8.148;2022-07-23T06:01:10;25.10;41.50
19248;DHT22;9758;48.640;8.148;2022-07-23T06:03:38;25.00;41.50
19248;DHT22;9758;48.640;8.148;2022-07-23T06:06:05;25.00;41.60
19248;DHT22;9758;48.640;8.148;2022-07-23T06:08:32;25.00;41.70
19248;DHT22;9758;48.640;8.148;2022-07-23T06:10:59;25.00;41.80
19248;DHT22;9758;48.640;8.148;2022-07-23T06:13:27;25.00;41.80
19248;DHT22;9758;48.640;8.148;2022-07-23T06:15:53;25.00;41.90
19248;DHT22;9758;48.640;8.148;2022-07-23T06:18:22;25.00;42.00
19248;DHT22;9758;48.640;8.148;2022-07-23T06:20:49;24.90;42.00
19248;DHT22;9758;48.640;8.148;2022-07-23T06:23:16;24.90;42.10
19248;DHT22;9758;48.640;8.148;2022-07-23T06:25:42;24.90;42.20
19248;DHT22;9758;48.640;8.148;2022-07-23T06:28:09;24.80;42.20
19248;DHT22;9758;48.640;8.148;2022-07-23T06:30:37;24.80;42.90
19248;DHT22;9758;48.640;8.148;2022-07-23T06:33:04;24.80;42.30
19248;DHT22;9758;48.640;8.148;2022-07-23T06:35:31;24.70;42.40
19248;DHT22;9758;48.640;8.148;2022-07-23T06:37:59;24.70;42.50
19248;DHT22;9758;48.640;8.148;2022-07-23T06:40:25;24.70;42.60
19248;DHT22;9758;48.640;8.148;2022-07-23T06:42:52;24.60;42.60
19248;DHT22;9758;48.640;8.148;2022-07-23T06:45:19;24.60;42.70
19248;DHT22;9758;48.640;8.148;2022-07-23T06:47:47;24.70;42.80
19248;DHT22;9758;48.640;8.148;2022-07-23T06:50:14;24.70;42.80
19248;DHT22;9758;48.640;8.148;2022-07-23T06:52:40;24.70;42.90
19248;DHT22;9758;48.640;8.148;2022-07-23T06:55:07;24.70;42.90
19248;DHT22;9758;48.640;8.148;2022-07-23T06:57:34;24.80;43.00
19248;DHT22;9758;48.640;8.148;2022-07-23T07:00:01;24.70;42.90
19248;DHT22;9758;48.640;8.148;2022-07-23T07:02:28;24.80;43.00
19248;DHT22;9758;48.640;8.148;2022-07-23T07:04:56;24.80;43.00
19248;DHT22;9758;48.640;8.148;2022-07-23T07:07:23;24.80;43.00
19248;DHT22;9758;48.640;8.148;2022-07-23T07:09:49;24.80;43.10
19248;DHT22;9758;48.640;8.148;2022-07-23T07:12:16;24.90;43.20
19248;DHT22;9758;48.640;8.148;2022-07-23T07:14:43;24.90;43.20
19248;DHT22;9758;48.640;8.148;2022-07-23T07:17:09;25.00;43.30
19248;DHT22;9758;48.640;8.148;2022-07-23T07:19:37;25.00;43.30
19248;DHT22;9758;48.640;8.148;2022-07-23T07:22:06;25.10;43.30
19248;DHT22;9758;48.640;8.148;2022-07-23T07:24:33;25.20;43.30
19248;DHT22;9758;48.640;8.148;2022-07-23T07:26:59;25.20;43.20
19248;DHT22;9758;48.640;8.148;2022-07-23T07:29:26;25.30;43.20
19248;DHT22;9758;48.640;8.148;2022-07-23T07:32:03;25.40;43.30
19248;DHT22;9758;48.640;8.148;2022-07-23T07:34:30;25.40;43.30
19248;DHT22;9758;48.640;8.148;2022-07-23T07:36:57;25.50;43.20
19248;DHT22;9758;48.640;8.148;2022-07-23T07:39:25;25.50;43.10
19248;DHT22;9758;48.640;8.148;2022-07-23T07:41:51;25.50;43.10
19248;DHT22;9758;48.640;8.148;2022-07-23T07:44:19;25.50;43.20
19248;DHT22;9758;48.640;8.148;2022-07-23T07:46:45;25.50;43.30
19248;DHT22;9758;48.640;8.148;2022-07-23T07:49:12;25.50;43.30
19248;DHT22;9758;48.640;8.148;2022-07-23T07:51:39;25.50;43.30
19248;DHT22;9758;48.640;8.148;2022-07-23T07:54:05;25.50;43.30
19248;DHT22;9758;48.640;8.148;2022-07-23T07:56:33;25.60;43.30
19248;DHT22;9758;48.640;8.148;2022-07-23T07:59:00;25.70;43.50
19248;DHT22;9758;48.640;8.148;2022-07-23T08:01:27;25.80;43.50
19248;DHT22;9758;48.640;8.148;2022-07-23T08:03:54;25.80;43.40
19248;DHT22;9758;48.640;8.148;2022-07-23T08:06:21;25.80;43.30
19248;DHT22;9758;48.640;8.148;2022-07-23T08:08:48;25.90;43.30
19248;DHT22;9758;48.640;8.148;2022-07-23T08:11:15;25.90;43.30
19248;DHT22;9758;48.640;8.148;2022-07-23T08:13:43;25.90;43.30
19248;DHT22;9758;48.640;8.148;2022-07-23T08:16:10;25.90;43.30
19248;DHT22;9758;48.640;8.148;2022-07-23T08:18:37;25.90;43.30
19248;DHT22;9758;48.640;8.148;2022-07-23T08:21:04;25.90;43.30
19248;DHT22;9758;48.640;8.148;2022-07-23T08:23:31;25.90;43.30
19248;DHT22;9758;48.640;8.148;2022-07-23T08:25:58;25.90;43.40
19248;DHT22;9758;48.640;8.148;2022-07-23T08:28:25;25.90;43.40
19248;DHT22;9758;48.640;8.148;2022-07-23T08:30:53;25.90;43.50
19248;DHT22;9758;48.640;8.148;2022-07-23T08:33:20;26.00;43.50
19248;DHT22;9758;48.640;8.148;2022-07-23T08:35:48;26.00;43.50
19248;DHT22;9758;48.640;8.148;2022-07-23T08:38:17;26.10;43.50
19248;DHT22;9758;48.640;8.148;2022-07-23T08:40:46;26.10;43.50
19248;DHT22;9758;48.640;8.148;2022-07-23T08:43:16;26.10;44.20
19248;DHT22;9758;48.640;8.148;2022-07-23T08:45:45;26.20;43.50
19248;DHT22;9758;48.640;8.148;2022-07-23T08:48:17;26.20;43.60
19248;DHT22;9758;48.640;8.148;2022-07-23T08:50:46;26.20;43.60
19248;DHT22;9758;48.640;8.148;2022-07-23T08:53:14;26.20;43.70
19248;DHT22;9758;48.640;8.148;2022-07-23T08:55:43;26.20;43.70
19248;DHT22;9758;48.640;8.148;2022-07-23T08:58:12;26.30;43.70
19248;DHT22;9758;48.640;8.148;2022-07-23T09:00:40;26.30;43.70
19248;DHT22;9758;48.640;8.148;2022-07-23T09:03:08;26.40;43.60
19248;DHT22;9758;48.640;8.148;2022-07-23T09:05:42;26.40;43.60
19248;DHT22;9758;48.640;8.148;2022-07-23T09:08:11;26.40;43.60
19248;DHT22;9758;48.640;8.148;2022-07-23T09:10:50;26.40;43.60
19248;DHT22;9758;48.640;8.148;2022-07-23T09:13:25;26.40;43.60
19248;DHT22;9758;48.640;8.148;2022-07-23T09:15:54;26.50;43.70
19248;DHT22;9758;48.640;8.148;2022-07-23T09:18:35;26.50;43.70
19248;DHT22;9758;48.640;8.148;2022-07-23T09:21:22;26.60;43.60
19248;DHT22;9758;48.640;8.148;2022-07-23T09:23:55;26.80;43.80
19248;DHT22;9758;48.640;8.148;2022-07-23T09:26:31;26.90;43.50
19248;DHT22;9758;48.640;8.148;2022-07-23T09:29:09;26.90;43.40
19248;DHT22;9758;48.640;8.148;2022-07-23T09:31:48;27.00;43.50
19248;DHT22;9758;48.640;8.148;2022-07-23T09:34:19;27.00;43.40
19248;DHT22;9758;48.640;8.148;2022-07-23T09:36:49;27.10;43.30
19248;DHT22;9758;48.640;8.148;2022-07-23T09:39:28;27.10;43.30
19248;DHT22;9758;48.640;8.148;2022-07-23T09:41:56;27.20;43.40
19248;DHT22;9758;48.640;8.148;2022-07-23T09:44:24;27.30;43.30
19248;DHT22;9758;48.640;8.148;2022-07-23T09:46:58;27.40;43.20
19248;DHT22;9758;48.640;8.148;2022-07-23T09:49:26;27.50;43.10
19248;DHT22;9758;48.640;8.148;2022-07-23T09:51:58;27.70;43.20
19248;DHT22;9758;48.640;8.148;2022-07-23T09:54:29;27.80;43.10
19248;DHT22;9758;48.640;8.148;2022-07-23T09:56:59;27.90;43.00
19248;DHT22;9758;48.640;8.148;2022-07-23T09:59:27;28.00;43.50
19248;DHT22;9758;48.640;8.148;2022-07-23T10:01:55;28.10;42.80
19248;DHT22;9758;48.640;8.148;2022-07-23T10:04:25;28.20;42.80
19248;DHT22;9758;48.640;8.148;2022-07-23T10:06:55;28.20;42.70
19248;DHT22;9758;48.640;8.148;2022-07-23T10:09:47;28.30;42.60
19248;DHT22;9758;48.640;8.148;2022-07-23T10:12:16;28.30;43.20
19248;DHT22;9758;48.640;8.148;2022-07-23T10:15:00;28.40;42.60
19248;DHT22;9758;48.640;8.148;2022-07-23T10:17:28;28.40;42.40
19248;DHT22;9758;48.640;8.148;2022-07-23T10:19:56;28.40;42.40
19248;DHT22;9758;48.640;8.148;2022-07-23T10:22:25;28.50;42.40
19248;DHT22;9758;48.640;8.148;2022-07-23T10:25:00;28.50;42.30
19248;DHT22;9758;48.640;8.148;2022-07-23T10:27:53;28.60;42.40
19248;DHT22;9758;48.640;8.148;2022-07-23T10:30:30;28.60;42.40
19248;DHT22;9758;48.640;8.148;2022-07-23T10:33:17;28.80;42.30
19248;DHT22;9758;48.640;8.148;2022-07-23T10:35:50;28.80;42.20
19248;DHT22;9758;48.640;8.148;2022-07-23T10:38:39;29.00;42.20
19248;DHT22;9758;48.640;8.148;2022-07-23T10:41:12;29.00;41.90
19248;DHT22;9758;48.640;8.148;2022-07-23T10:43:40;29.10;41.80
19248;DHT22;9758;48.640;8.148;2022-07-23T10:46:53;29.10;41.80
19248;DHT22;9758;48.640;8.148;2022-07-23T10:49:36;29.30;41.80
19248;DHT22;9758;48.640;8.148;2022-07-23T10:52:23;29.40;41.70
19248;DHT22;9758;48.640;8.148;2022-07-23T10:54:52;29.40;41.60
19248;DHT22;9758;48.640;8.148;2022-07-23T10:57:24;29.50;41.60
19248;DHT22;9758;48.640;8.148;2022-07-23T11:00:24;29.50;41.40
19248;DHT22;9758;48.640;8.148;2022-07-23T11:02:55;29.60;41.50
19248;DHT22;9758;48.640;8.148;2022-07-23T11:05:23;29.70;41.50
19248;DHT22;9758;48.640;8.148;2022-07-23T11:08:14;29.80;41.50
19248;DHT22;9758;48.640;8.148;2022-07-23T11:10:45;29.90;41.30
19248;DHT22;9758;48.640;8.148;2022-07-23T11:13:29;30.00;41.20
19248;DHT22;9758;48.640;8.148;2022-07-23T11:16:07;30.00;41.00
19248;DHT22;9758;48.640;8.148;2022-07-23T11:18:56;30.10;41.00
19248;DHT22;9758;48.640;8.148;2022-07-23T11:21:49;30.20;40.90
19248;DHT22;9758;48.640;8.148;2022-07-23T11:24:20;30.20;40.80
19248;DHT22;9758;48.640;8.148;2022-07-23T11:27:03;30.20;40.90
19248;DHT22;9758;48.640;8.148;2022-07-23T11:29:47;30.20;40.80
19248;DHT22;9758;48.640;8.148;2022-07-23T11:32:36;30.20;40.60
19248;DHT22;9758;48.640;8.148;2022-07-23T11:35:26;30.30;40.50
19248;DHT22;9758;48.640;8.148;2022-07-23T11:38:03;30.30;40.50
19248;DHT22;9758;48.640;8.148;2022-07-23T11:40:30;30.40;40.70
19248;DHT22;9758;48.640;8.148;2022-07-23T11:42:59;30.50;40.60
19248;DHT22;9758;48.640;8.148;2022-07-23T11:45:31;30.60;40.60
19248;DHT22;9758;48.640;8.148;2022-07-23T11:47:59;30.70;40.60
19248;DHT22;9758;48.640;8.148;2022-07-23T11:50:26;30.80;40.60
19248;DHT22;9758;48.640;8.148;2022-07-23T11:52:53;30.90;40.40
19248;DHT22;9758;48.640;8.148;2022-07-23T11:55:21;31.00;40.20
19248;DHT22;9758;48.640;8.148;2022-07-23T11:57:51;31.10;40.10
19248;DHT22;9758;48.640;8.148;2022-07-23T12:00:25;31.10;40.00
19248;DHT22;9758;48.640;8.148;2022-07-23T12:02:59;31.00;40.10
19248;DHT22;9758;48.640;8.148;2022-07-23T12:05:30;31.00;40.00
19248;DHT22;9758;48.640;8.148;2022-07-23T12:08:00;31.10;40.20
19248;DHT22;9758;48.640;8.148;2022-07-23T12:10:34;31.10;40.00
19248;DHT22;9758;48.640;8.148;2022-07-23T12:13:04;31.10;40.00
19248;DHT22;9758;48.640;8.148;2022-07-23T12:15:35;31.10;39.90
19248;DHT22;9758;48.640;8.148;2022-07-23T12:18:08;31.20;39.90
19248;DHT22;9758;48.640;8.148;2022-07-23T12:20:38;31.20;39.90
19248;DHT22;9758;48.640;8.148;2022-07-23T12:23:07;31.20;39.80
19248;DHT22;9758;48.640;8.148;2022-07-23T12:25:36;31.20;39.90
19248;DHT22;9758;48.640;8.148;2022-07-23T12:28:05;31.20;39.80
19248;DHT22;9758;48.640;8.148;2022-07-23T12:30:37;31.20;39.80
19248;DHT22;9758;48.640;8.148;2022-07-23T12:33:07;31.20;39.60
19248;DHT22;9758;48.640;8.148;2022-07-23T12:35:36;31.20;39.80
19248;DHT22;9758;48.640;8.148;2022-07-23T12:38:08;31.10;39.70
19248;DHT22;9758;48.640;8.148;2022-07-23T12:40:37;31.10;39.70
19248;DHT22;9758;48.640;8.148;2022-07-23T12:43:06;31.20;40.40
19248;DHT22;9758;48.640;8.148;2022-07-23T12:45:45;31.20;39.80
19248;DHT22;9758;48.640;8.148;2022-07-23T12:48:32;31.20;39.70
19248;DHT22;9758;48.640;8.148;2022-07-23T12:51:03;31.20;39.70
19248;DHT22;9758;48.640;8.148;2022-07-23T12:53:32;31.30;39.80
19248;DHT22;9758;48.640;8.148;2022-07-23T12:56:07;31.40;39.60
19248;DHT22;9758;48.640;8.148;2022-07-23T12:58:41;31.50;39.50
19248;DHT22;9758;48.640;8.148;2022-07-23T13:01:13;31.40;39.20
19248;DHT22;9758;48.640;8.148;2022-07-23T13:03:57;31.30;39.40
19248;DHT22;9758;48.640;8.148;2022-07-23T13:06:25;31.30;39.50
19248;DHT22;9758;48.640;8.148;2022-07-23T13:08:54;31.40;39.50
19248;DHT22;9758;48.640;8.148;2022-07-23T13:11:22;31.50;39.50
19248;DHT22;9758;48.640;8.148;2022-07-23T13:14:01;31.60;39.50
19248;DHT22;9758;48.640;8.148;2022-07-23T13:16:29;31.70;39.20
19248;DHT22;9758;48.640;8.148;2022-07-23T13:18:58;31.80;39.10
19248;DHT22;9758;48.640;8.148;2022-07-23T13:21:26;31.90;39.10
19248;DHT22;9758;48.640;8.148;2022-07-23T13:23:53;31.90;38.90
19248;DHT22;9758;48.640;8.148;2022-07-23T13:26:22;31.90;38.90
19248;DHT22;9758;48.640;8.148;2022-07-23T13:28:49;31.80;38.80
19248;DHT22;9758;48.640;8.148;2022-07-23T13:31:17;31.70;38.90
19248;DHT22;9758;48.640;8.148;2022-07-23T13:33:44;31.70;39.10
19248;DHT22;9758;48.640;8.148;2022-07-23T13:36:17;31.80;39.20
19248;DHT22;9758;48.640;8.148;2022-07-23T13:38:47;31.80;39.10
19248;DHT22;9758;48.640;8.148;2022-07-23T13:41:14;32.00;39.10
19248;DHT22;9758;48.640;8.148;2022-07-23T13:43:43;32.00;38.80
19248;DHT22;9758;48.640;8.148;2022-07-23T13:46:10;32.00;38.70
19248;DHT22;9758;48.640;8.148;2022-07-23T13:48:37;31.90;38.70
19248;DHT22;9758;48.640;8.148;2022-07-23T13:51:04;31.90;38.80
19248;DHT22;9758;48.640;8.148;2022-07-23T13:53:32;31.90;38.90
19248;DHT22;9758;48.640;8.148;2022-07-23T13:55:59;32.00;38.90
19248;DHT22;9758;48.640;8.148;2022-07-23T13:58:25;32.10;38.80
19248;DHT22;9758;48.640;8.148;2022-07-23T14:00:53;32.20;38.90
19248;DHT22;9758;48.640;8.148;2022-07-23T14:03:21;32.40;38.90
19248;DHT22;9758;48.640;8.148;2022-07-23T14:05:49;32.50;38.70
19248;DHT22;9758;48.640;8.148;2022-07-23T14:08:16;32.60;38.50
19248;DHT22;9758;48.640;8.148;2022-07-23T14:10:50;32.70;38.50
19248;DHT22;9758;48.640;8.148;2022-07-23T14:13:17;32.80;38.40
19248;DHT22;9758;48.640;8.148;2022-07-23T14:15:44;32.90;38.20
19248;DHT22;9758;48.640;8.148;2022-07-23T14:18:11;32.90;38.20
19248;DHT22;9758;48.640;8.148;2022-07-23T14:20:37;32.90;38.30
19248;DHT22;9758;48.640;8.148;2022-07-23T14:23:04;33.00;38.30
19248;DHT22;9758;48.640;8.148;2022-07-23T14:25:31;33.10;38.20
19248;DHT22;9758;48.640;8.148;2022-07-23T14:27:59;33.20;38.10
19248;DHT22;9758;48.640;8.148;2022-07-23T14:30:26;33.20;38.00
19248;DHT22;9758;48.640;8.148;2022-07-23T14:32:54;33.20;38.10
19248;DHT22;9758;48.640;8.148;2022-07-23T14:35:21;33.30;38.00
19248;DHT22;9758;48.640;8.148;2022-07-23T14:37:49;33.30;37.80
19248;DHT22;9758;48.640;8.148;2022-07-23T14:40:15;33.20;37.60
19248;DHT22;9758;48.640;8.148;2022-07-23T14:42:42;33.20;37.90
19248;DHT22;9758;48.640;8.148;2022-07-23T14:45:11;33.20;37.90
19248;DHT22;9758;48.640;8.148;2022-07-23T14:47:38;33.20;37.90
19248;DHT22;9758;48.640;8.148;2022-07-23T14:50:06;33.30;37.60
19248;DHT22;9758;48.640;8.148;2022-07-23T14:52:33;33.20;37.50
19248;DHT22;9758;48.640;8.148;2022-07-23T14:55:01;33.20;38.30
19248;DHT22;9758;48.640;8.148;2022-07-23T14:57:31;33.00;37.70
19248;DHT22;9758;48.640;8.148;2022-07-23T15:00:07;33.00;37.70
19248;DHT22;9758;48.640;8.148;2022-07-23T15:02:36;33.00;37.70
19248;DHT22;9758;48.640;8.148;2022-07-23T15:05:03;33.00;37.70
19248;DHT22;9758;48.640;8.148;2022-07-23T15:07:30;33.00;37.70
19248;DHT22;9758;48.640;8.148;2022-07-23T15:09:58;33.00;37.70
19248;DHT22;9758;48.640;8.148;2022-07-23T15:12:24;33.10;37.70
19248;DHT22;9758;48.640;8.148;2022-07-23T15:14:51;33.20;37.60
19248;DHT22;9758;48.640;8.148;2022-07-23T15:17:18;33.20;37.50
19248;DHT22;9758;48.640;8.148;2022-07-23T15:19:46;33.20;37.40
19248;DHT22;9758;48.640;8.148;2022-07-23T15:22:13;33.20;37.40
19248;DHT22;9758;48.640;8.148;2022-07-23T15:24:40;33.10;37.30
19248;DHT22;9758;48.640;8.148;2022-07-23T15:27:07;33.00;37.40
19248;DHT22;9758;48.640;8.148;2022-07-23T15:29:33;32.90;37.40
19248;DHT22;9758;48.640;8.148;2022-07-23T15:32:00;32.80;37.40
19248;DHT22;9758;48.640;8.148;2022-07-23T15:34:28;32.70;37.60
19248;DHT22;9758;48.640;8.148;2022-07-23T15:36:59;32.70;37.60
19248;DHT22;9758;48.640;8.148;2022-07-23T15:39:25;32.70;37.60
19248;DHT22;9758;48.640;8.148;2022-07-23T15:41:52;32.70;37.50
19248;DHT22;9758;48.640;8.148;2022-07-23T15:44:19;32.60;37.40
19248;DHT22;9758;48.640;8.148;2022-07-23T15:46:46;32.60;37.50
19248;DHT22;9758;48.640;8.148;2022-07-23T15:49:13;32.50;37.50
19248;DHT22;9758;48.640;8.148;2022-07-23T15:51:40;32.50;37.60
19248;DHT22;9758;48.640;8.148;2022-07-23T15:54:08;32.50;37.70
19248;DHT22;9758;48.640;8.148;2022-07-23T15:56:35;32.60;37.70